POGODA: Poland

Lotnisko: Gdansk-Rebiechowo

METAR KOD: EPGD


METAR: EPGD 231330Z 05013KT 020V080 CAVOK 15/02 Q1021


BLOK
Pogoda METAR
231330Z
Dzien: 23, Godzina: 13:30 UTC.
05013KT
Wiatr z kierunku 050, o predkosci 24 km/h
020V080
Wiatr zmienny pomiedzy 020 i 080
CAVOK
Widzialnosc pow. 10 km, brak chmur pon. 1500 m., brak CB, brak opadow, burz i innych
15/02
Temperatura: powietrze 15°C, punkt rosy 2°C . Wilgotnosc wzgledna 13 %
Q1021
Cisnienie: 1021 hPa

Pogoda na innym lotnisku

Pogoda Gdansk-Rebiechowo WEATHER Poland  
Pogoda Katowice WEATHER Poland  
Pogoda Krakow WEATHER Poland  
Pogoda Poznan WEATHER Poland  
Pogoda Rzeszow-Jasionka WEATHER Poland  
Pogoda Szczecin WEATHER Poland  
Pogoda Warszawa-Okecie WEATHER Poland  
Pogoda Wroclaw Ii WEATHER Poland  

Pogoda w inny kraju

Strona startowa

(C) by GREGOR 2007
Ogłoszenia Towarzyskie